Terminal Aerodrome Forecast
Issued by NWS

Home | Current Version | Previous Version | Text Only | Print | Product List | Glossary On
Versions: 1 2 3 4 5 6 7 8 9 10 11 12 13 14
279
FTUS45 KRIW 032337
TAFRKS
TAF
KRKS 032337Z 0400/0424 25006KT P6SM SKC
     FM042000 25012KT P6SM FEW110=

USA.gov is the U.S. government's official web portal to all federal, state and local government web resources and services.